createdAt,value
2019-02-17T00:01:43.341Z,28.30
2019-02-17T00:04:24.044Z,28.20
2019-02-17T00:07:04.015Z,28.40
2019-02-17T00:09:43.204Z,28.40
2019-02-17T00:12:23.177Z,28.40
2019-02-17T00:15:03.593Z,28.20
2019-02-17T00:17:43.582Z,28.30
2019-02-17T00:20:22.959Z,28.50
2019-02-17T00:23:02.054Z,28.60
2019-02-17T00:25:42.461Z,28.60
2019-02-17T00:28:21.729Z,28.40
2019-02-17T00:31:00.772Z,28.40
2019-02-17T00:33:40.069Z,28.60
2019-02-17T00:36:19.147Z,28.50
2019-02-17T00:38:58.536Z,28.40
2019-02-17T00:41:37.790Z,28.40
2019-02-17T00:44:16.873Z,28.50
2019-02-17T00:46:56.888Z,28.60
2019-02-17T00:49:37.144Z,28.70
2019-02-17T00:52:18.936Z,28.70
2019-02-17T00:54:58.126Z,28.90
2019-02-17T00:57:37.547Z,28.80
2019-02-17T01:00:18.207Z,28.90
2019-02-17T01:03:01.428Z,28.80
2019-02-17T01:05:38.841Z,28.70
2019-02-17T01:08:17.649Z,28.70
2019-02-17T01:10:59.148Z,28.80
2019-02-17T01:13:57.722Z,28.80
2019-02-17T01:16:36.526Z,28.70
2019-02-17T01:19:17.944Z,28.60
2019-02-17T01:21:57.197Z,28.90
2019-02-17T01:24:35.924Z,29.10
2019-02-17T01:27:15.026Z,29.10
2019-02-17T01:29:56.879Z,28.80
2019-02-17T01:32:37.201Z,28.90
2019-02-17T01:35:17.114Z,29.40
2019-02-17T01:37:58.338Z,29.70
2019-02-17T01:40:37.359Z,29.90
2019-02-17T01:43:16.340Z,29.50
2019-02-17T01:45:55.246Z,29.70
2019-02-17T01:48:34.355Z,29.80
2019-02-17T01:51:17.238Z,29.80
2019-02-17T01:53:59.291Z,29.60
2019-02-17T01:56:39.721Z,29.80
2019-02-17T01:59:30.437Z,29.90
2019-02-17T02:02:04.074Z,29.90
2019-02-17T02:04:43.604Z,29.90
2019-02-17T02:07:22.783Z,30.20
2019-02-17T02:10:02.824Z,30.40
2019-02-17T02:12:44.042Z,30.30
2019-02-17T02:15:24.210Z,29.90
2019-02-17T02:18:03.549Z,29.60
2019-02-17T02:20:45.532Z,29.60
2019-02-17T02:23:24.791Z,29.70
2019-02-17T02:26:04.836Z,29.80
2019-02-17T02:28:43.986Z,29.70
2019-02-17T02:31:23.248Z,29.60
2019-02-17T02:34:02.343Z,29.60
2019-02-17T02:36:43.852Z,29.40
2019-02-17T02:39:23.732Z,29.20
2019-02-17T02:42:05.702Z,29.40
2019-02-17T02:44:44.390Z,29.70
2019-02-17T02:47:23.873Z,29.80
2019-02-17T02:50:04.553Z,29.60
2019-02-17T02:52:45.109Z,29.30
2019-02-17T02:55:25.452Z,29.50
2019-02-17T02:58:04.628Z,29.80
2019-02-17T03:00:44.421Z,29.80
2019-02-17T03:03:23.994Z,29.30
2019-02-17T03:06:30.811Z,29.30
2019-02-17T03:09:10.454Z,29.50
2019-02-17T03:11:52.254Z,29.40
2019-02-17T03:14:31.554Z,29.40
2019-02-17T03:17:13.548Z,29.30
2019-02-17T03:19:54.190Z,29.50
2019-02-17T03:22:33.783Z,29.70
2019-02-17T03:25:13.539Z,29.80
2019-02-17T03:27:53.136Z,29.50
2019-02-17T03:30:33.919Z,29.60
2019-02-17T03:33:13.513Z,30.10
2019-02-17T03:35:55.749Z,30.60
2019-02-17T03:38:32.839Z,30.40
2019-02-17T03:41:18.444Z,30.00
2019-02-17T03:43:57.718Z,30.00
2019-02-17T03:46:39.008Z,29.80
2019-02-17T03:49:18.584Z,30.20
2019-02-17T03:52:01.179Z,30.30
2019-02-17T03:54:44.119Z,30.50
2019-02-17T03:57:23.869Z,30.50
2019-02-17T04:00:16.439Z,30.30
2019-02-17T04:02:48.414Z,30.90
2019-02-17T04:05:28.223Z,31.00
2019-02-17T04:08:08.487Z,31.00
2019-02-17T04:10:51.621Z,30.70
2019-02-17T04:13:31.870Z,30.50
2019-02-17T04:16:12.278Z,30.70
2019-02-17T04:18:54.678Z,31.40
2019-02-17T04:21:34.139Z,32.00
2019-02-17T04:24:14.197Z,32.00
2019-02-17T04:26:54.015Z,32.10
2019-02-17T04:29:33.954Z,31.90
2019-02-17T04:32:15.301Z,31.70
2019-02-17T04:34:56.158Z,31.80
2019-02-17T04:37:36.314Z,31.20
2019-02-17T04:40:16.656Z,31.10
2019-02-17T04:42:56.790Z,31.80
2019-02-17T04:45:36.733Z,32.20
2019-02-17T04:48:16.611Z,32.50
2019-02-17T04:50:56.849Z,32.40
2019-02-17T04:53:36.078Z,31.60
2019-02-17T04:56:20.101Z,32.30
2019-02-17T04:58:59.371Z,32.60
2019-02-17T05:01:38.558Z,32.30
2019-02-17T05:04:17.507Z,32.00
2019-02-17T05:06:56.749Z,32.40
2019-02-17T05:09:43.348Z,32.30
2019-02-17T05:12:23.496Z,32.40
2019-02-17T05:15:08.059Z,32.20
2019-02-17T05:17:48.773Z,31.90
2019-02-17T05:20:30.097Z,31.50
2019-02-17T05:23:09.684Z,31.50
2019-02-17T05:25:51.423Z,31.50
2019-02-17T05:28:31.602Z,31.50
2019-02-17T05:31:10.716Z,31.40
2019-02-17T05:33:51.223Z,31.40
2019-02-17T05:36:30.393Z,31.80
2019-02-17T05:39:10.480Z,32.00
2019-02-17T05:41:51.392Z,31.90
2019-02-17T05:44:31.690Z,31.70
2019-02-17T05:47:14.542Z,31.30
2019-02-17T05:49:53.592Z,31.40
2019-02-17T05:52:32.657Z,31.30
2019-02-17T05:55:11.658Z,31.30
2019-02-17T05:57:52.177Z,32.10
2019-02-17T06:00:35.089Z,32.20
2019-02-17T06:03:14.234Z,32.40
2019-02-17T06:05:53.282Z,32.20
2019-02-17T06:08:32.629Z,31.80
2019-02-17T06:11:11.738Z,31.80
2019-02-17T06:13:50.637Z,31.80
2019-02-17T06:16:29.867Z,31.60
2019-02-17T06:19:08.981Z,32.30
2019-02-17T06:22:05.049Z,32.30
2019-02-17T06:24:43.964Z,32.20
2019-02-17T06:27:22.631Z,32.00
2019-02-17T06:30:01.791Z,31.90
2019-02-17T06:32:41.556Z,31.50
2019-02-17T06:35:20.922Z,31.10
2019-02-17T06:38:00.935Z,31.20
2019-02-17T06:40:40.153Z,31.20
2019-02-17T06:43:19.335Z,31.10
2019-02-17T06:45:58.524Z,30.70
2019-02-17T06:48:40.322Z,31.00
2019-02-17T06:51:22.255Z,31.20
2019-02-17T06:54:01.190Z,31.20
2019-02-17T06:56:50.552Z,31.30
2019-02-17T06:59:30.128Z,31.00
2019-02-17T07:02:09.395Z,30.90
2019-02-17T07:05:06.895Z,31.10
2019-02-17T07:07:50.514Z,31.50
2019-02-17T07:10:29.395Z,31.90
2019-02-17T07:13:08.521Z,31.90
2019-02-17T07:15:47.911Z,32.00
2019-02-17T07:18:26.942Z,31.50
2019-02-17T07:21:06.540Z,31.30
2019-02-17T07:23:45.597Z,30.70
2019-02-17T07:26:27.596Z,31.10
2019-02-17T07:29:08.102Z,31.50
2019-02-17T07:31:48.322Z,31.30
2019-02-17T07:34:28.293Z,31.60
2019-02-17T07:37:07.588Z,31.90
2019-02-17T07:39:49.090Z,32.00
2019-02-17T07:42:28.384Z,32.20
2019-02-17T07:45:07.614Z,32.50
2019-02-17T07:47:47.850Z,32.60
2019-02-17T07:50:28.284Z,33.00
2019-02-17T07:53:08.510Z,32.60
2019-02-17T07:55:48.050Z,32.80
2019-02-17T07:58:29.915Z,33.30
2019-02-17T08:01:09.025Z,33.00
2019-02-17T08:03:48.578Z,33.10
2019-02-17T08:06:29.029Z,32.40
2019-02-17T08:09:08.763Z,32.30
2019-02-17T08:11:48.656Z,32.10
2019-02-17T08:14:27.613Z,31.60
2019-02-17T08:17:07.768Z,31.50
2019-02-17T08:19:52.390Z,31.30
2019-02-17T08:22:32.355Z,31.60
2019-02-17T08:25:21.412Z,31.60
2019-02-17T08:27:55.733Z,31.60
2019-02-17T08:30:35.988Z,31.20
2019-02-17T08:33:15.272Z,31.00
2019-02-17T08:35:57.091Z,31.20
2019-02-17T08:38:37.195Z,31.10
2019-02-17T08:41:18.819Z,30.90
2019-02-17T08:43:57.826Z,30.70
2019-02-17T08:46:36.989Z,30.90
2019-02-17T08:49:19.263Z,30.90
2019-02-17T08:52:00.752Z,30.60
2019-02-17T08:54:40.830Z,30.60
2019-02-17T08:57:23.307Z,30.60
2019-02-17T09:00:00.971Z,30.70
2019-02-17T09:02:42.298Z,30.70
2019-02-17T09:05:24.277Z,30.80
2019-02-17T09:08:04.040Z,30.40
2019-02-17T09:10:43.869Z,30.50
2019-02-17T09:13:23.294Z,30.40
2019-02-17T09:16:04.244Z,30.40
2019-02-17T09:18:47.590Z,30.30
2019-02-17T09:21:24.499Z,30.30
2019-02-17T09:24:04.503Z,30.40
2019-02-17T09:26:47.126Z,30.30
2019-02-17T09:29:28.288Z,30.20
2019-02-17T09:32:16.053Z,30.20
2019-02-17T09:34:48.429Z,30.00
2019-02-17T09:37:27.505Z,30.10
2019-02-17T09:40:08.868Z,30.00
2019-02-17T09:42:49.091Z,30.30
2019-02-17T09:45:28.576Z,30.20
2019-02-17T09:48:09.044Z,30.00
2019-02-17T09:50:48.549Z,29.80
2019-02-17T09:53:28.588Z,29.90
2019-02-17T09:56:11.202Z,30.00
2019-02-17T09:58:51.542Z,29.90
2019-02-17T10:01:30.723Z,29.60
2019-02-17T10:04:10.865Z,29.70
2019-02-17T10:06:50.124Z,29.80
2019-02-17T10:09:29.337Z,29.90
2019-02-17T10:12:09.702Z,29.90
2019-02-17T10:14:49.381Z,29.60
2019-02-17T10:17:29.666Z,29.70
2019-02-17T10:20:09.318Z,29.70
2019-02-17T10:22:50.304Z,29.80
2019-02-17T10:25:35.028Z,29.40
2019-02-17T10:28:15.880Z,29.10
2019-02-17T10:30:57.706Z,29.10
2019-02-17T10:33:37.039Z,29.10
2019-02-17T10:36:16.057Z,29.10
2019-02-17T10:38:59.115Z,29.10
2019-02-17T10:41:40.478Z,29.00
2019-02-17T10:44:22.024Z,29.10
2019-02-17T10:47:01.216Z,29.10
2019-02-17T10:49:40.313Z,28.80
2019-02-17T10:52:20.781Z,28.70
2019-02-17T10:55:00.919Z,28.70
2019-02-17T10:57:40.912Z,28.90
2019-02-17T11:00:21.218Z,29.00
2019-02-17T11:03:07.876Z,28.90
2019-02-17T11:05:50.472Z,28.80
2019-02-17T11:08:29.623Z,28.80
2019-02-17T11:11:11.853Z,28.90
2019-02-17T11:13:50.827Z,28.90
2019-02-17T11:16:30.160Z,28.90
2019-02-17T11:19:09.400Z,28.70
2019-02-17T11:21:50.665Z,28.80
2019-02-17T11:24:30.852Z,28.90
2019-02-17T11:27:11.303Z,28.90
2019-02-17T11:29:51.389Z,28.80
2019-02-17T11:32:32.292Z,28.60
2019-02-17T11:35:14.420Z,28.60
2019-02-17T11:37:54.347Z,28.80
2019-02-17T11:40:34.346Z,28.80
2019-02-17T11:43:14.471Z,28.60
2019-02-17T11:45:53.677Z,28.60
2019-02-17T11:48:33.773Z,28.60
2019-02-17T11:51:12.903Z,28.50
2019-02-17T11:53:51.951Z,28.50
2019-02-17T11:56:31.405Z,28.40
2019-02-17T11:59:11.110Z,28.40
2019-02-17T12:01:51.200Z,28.40
2019-02-17T12:04:33.170Z,28.40
2019-02-17T12:07:12.337Z,28.30
2019-02-17T12:09:51.489Z,28.30
2019-02-17T12:12:31.554Z,28.40
2019-02-17T12:15:10.800Z,28.40
2019-02-17T12:17:51.949Z,28.30
2019-02-17T12:21:01.117Z,28.30
2019-02-17T12:23:48.210Z,28.40
2019-02-17T12:26:34.002Z,28.40
2019-02-17T12:29:20.439Z,28.40
2019-02-17T12:31:59.646Z,28.30
2019-02-17T12:34:38.756Z,28.40
2019-02-17T12:37:18.939Z,28.30
2019-02-17T12:39:59.066Z,28.20
2019-02-17T12:42:39.007Z,28.30
2019-02-17T12:45:19.639Z,28.30
2019-02-17T12:47:59.055Z,28.30
2019-02-17T12:50:39.270Z,28.30
2019-02-17T12:53:18.792Z,28.30
2019-02-17T12:55:58.187Z,28.30
2019-02-17T12:58:38.775Z,28.30
2019-02-17T13:01:18.470Z,28.40
2019-02-17T13:04:00.632Z,28.30
2019-02-17T13:06:41.030Z,28.30
2019-02-17T13:09:20.641Z,28.30
2019-02-17T13:12:00.188Z,28.30
2019-02-17T13:14:41.774Z,28.20
2019-02-17T13:17:23.637Z,28.20
2019-02-17T13:20:05.174Z,28.30
2019-02-17T13:22:56.580Z,28.30
2019-02-17T13:25:42.272Z,28.20
2019-02-17T13:28:22.620Z,28.30
2019-02-17T13:31:04.781Z,28.30
2019-02-17T13:33:46.287Z,28.20
2019-02-17T13:36:28.876Z,28.20
2019-02-17T13:39:13.579Z,28.30
2019-02-17T13:41:54.371Z,28.30
2019-02-17T13:44:52.214Z,28.30
2019-02-17T13:47:59.571Z,28.10
2019-02-17T13:50:44.973Z,28.20
2019-02-17T13:53:31.090Z,28.20
2019-02-17T13:56:23.340Z,28.20
2019-02-17T13:59:12.975Z,28.20
2019-02-17T14:01:55.900Z,28.20
2019-02-17T14:04:37.532Z,28.20
2019-02-17T14:07:20.473Z,28.20
2019-02-17T14:10:02.346Z,28.10
2019-02-17T14:12:42.506Z,28.30
2019-02-17T14:15:47.509Z,28.20
2019-02-17T14:18:29.562Z,28.20
2019-02-17T14:21:49.561Z,28.20
2019-02-17T14:24:32.058Z,28.20
2019-02-17T14:27:29.374Z,28.20
2019-02-17T14:30:15.172Z,28.10
2019-02-17T14:32:56.175Z,28.10
2019-02-17T14:35:49.288Z,28.10
2019-02-17T14:38:55.338Z,28.20
2019-02-17T14:42:12.026Z,28.30
2019-02-17T14:45:11.175Z,28.40
2019-02-17T14:48:11.288Z,28.30
2019-02-17T14:50:52.070Z,28.30
2019-02-17T14:53:33.459Z,28.30
2019-02-17T14:56:14.187Z,28.30
2019-02-17T14:58:54.371Z,28.40
2019-02-17T15:01:53.058Z,28.20
2019-02-17T15:04:35.154Z,28.30
2019-02-17T15:07:17.989Z,28.50
2019-02-17T15:10:00.320Z,28.50
2019-02-17T15:12:40.813Z,28.30
2019-02-17T15:15:20.353Z,28.40
2019-02-17T15:17:59.263Z,28.30
2019-02-17T15:20:39.989Z,28.30
2019-02-17T15:23:19.295Z,28.10
2019-02-17T15:25:58.956Z,28.30
2019-02-17T15:28:38.370Z,28.40
2019-02-17T15:31:19.950Z,28.50
2019-02-17T15:34:01.882Z,28.30
2019-02-17T15:36:42.110Z,28.40
2019-02-17T15:39:23.699Z,28.40
2019-02-17T15:42:05.234Z,28.30
2019-02-17T15:44:44.404Z,28.10
2019-02-17T15:47:27.242Z,28.20
2019-02-17T15:50:06.620Z,28.30
2019-02-17T15:52:51.991Z,28.30
2019-02-17T15:55:32.393Z,28.20
2019-02-17T15:58:13.724Z,28.30
2019-02-17T16:00:54.767Z,28.30
2019-02-17T16:03:40.738Z,28.30
2019-02-17T16:06:21.405Z,28.10
2019-02-17T16:09:02.029Z,28.30
2019-02-17T16:11:43.216Z,28.30
2019-02-17T16:14:23.412Z,28.20
2019-02-17T16:17:04.887Z,28.00
2019-02-17T16:19:42.435Z,28.20
2019-02-17T16:22:22.635Z,28.40
2019-02-17T16:25:07.353Z,28.40
2019-02-17T16:27:48.541Z,28.20
2019-02-17T16:30:28.531Z,28.30
2019-02-17T16:33:08.785Z,28.30
2019-02-17T16:35:52.085Z,28.40
2019-02-17T16:38:50.037Z,28.30
2019-02-17T16:41:29.817Z,28.40
2019-02-17T16:44:13.131Z,28.40
2019-02-17T16:46:53.594Z,28.50
2019-02-17T16:49:33.567Z,28.30
2019-02-17T16:52:13.932Z,28.30
2019-02-17T16:54:53.178Z,28.40
2019-02-17T16:57:32.985Z,28.40
2019-02-17T17:00:16.207Z,28.30
2019-02-17T17:02:57.737Z,28.10
2019-02-17T17:05:42.052Z,28.30
2019-02-17T17:08:21.262Z,28.30
2019-02-17T17:11:00.522Z,28.10
2019-02-17T17:13:40.697Z,28.00
2019-02-17T17:16:20.757Z,28.10
2019-02-17T17:19:02.064Z,28.20
2019-02-17T17:21:42.603Z,28.00
2019-02-17T17:24:21.766Z,28.00
2019-02-17T17:27:00.809Z,28.00
2019-02-17T17:29:39.734Z,28.10
2019-02-17T17:32:20.004Z,28.00
2019-02-17T17:34:59.473Z,28.10
2019-02-17T17:37:38.756Z,28.20
2019-02-17T17:40:18.133Z,28.30
2019-02-17T17:42:57.395Z,28.20
2019-02-17T17:45:36.739Z,28.00
2019-02-17T17:48:37.048Z,28.20
2019-02-17T17:51:17.644Z,28.20
2019-02-17T17:53:56.810Z,28.10
2019-02-17T17:56:35.422Z,28.00
2019-02-17T17:59:14.460Z,28.20
2019-02-17T18:01:53.571Z,28.30
2019-02-17T18:04:32.681Z,28.30
2019-02-17T18:07:12.987Z,28.00
2019-02-17T18:09:52.353Z,28.10
2019-02-17T18:12:32.644Z,28.30
2019-02-17T18:15:12.494Z,28.20
2019-02-17T18:17:54.875Z,28.00
2019-02-17T18:20:34.381Z,28.00
2019-02-17T18:23:17.094Z,28.20
2019-02-17T18:25:58.317Z,28.40
2019-02-17T18:28:38.608Z,28.10
2019-02-17T18:31:18.122Z,28.00
2019-02-17T18:33:57.622Z,28.10
2019-02-17T18:36:38.007Z,28.10
2019-02-17T18:39:21.315Z,28.00
2019-02-17T18:42:01.342Z,27.80
2019-02-17T18:44:42.664Z,27.90
2019-02-17T18:47:23.630Z,28.00
2019-02-17T18:50:03.408Z,28.00
2019-02-17T18:52:43.810Z,27.90
2019-02-17T18:55:24.146Z,27.90
2019-02-17T18:58:06.115Z,28.00
2019-02-17T19:00:46.663Z,28.10
2019-02-17T19:03:26.815Z,27.90
2019-02-17T19:06:08.432Z,27.70
2019-02-17T19:08:47.489Z,27.80
2019-02-17T19:11:26.838Z,28.00
2019-02-17T19:14:08.971Z,28.00
2019-02-17T19:16:48.637Z,27.80
2019-02-17T19:19:28.098Z,27.70
2019-02-17T19:22:07.851Z,27.80
2019-02-17T19:24:49.754Z,28.00
2019-02-17T19:27:28.779Z,28.00
2019-02-17T19:30:11.473Z,27.80
2019-02-17T19:32:53.551Z,27.80
2019-02-17T19:35:42.090Z,27.80
2019-02-17T19:38:18.611Z,27.80
2019-02-17T19:40:58.551Z,27.80
2019-02-17T19:43:38.362Z,27.90
2019-02-17T19:46:17.363Z,27.90
2019-02-17T19:48:56.729Z,27.80
2019-02-17T19:51:35.634Z,27.80
2019-02-17T19:54:15.012Z,27.90
2019-02-17T19:56:56.780Z,28.00
2019-02-17T19:59:35.707Z,28.00
2019-02-17T20:02:14.818Z,27.80
2019-02-17T20:05:12.489Z,27.70
2019-02-17T20:07:52.897Z,27.80
2019-02-17T20:10:33.516Z,27.90
2019-02-17T20:13:12.766Z,27.90
2019-02-17T20:15:52.440Z,27.80
2019-02-17T20:18:31.491Z,27.70
2019-02-17T20:21:10.166Z,27.90
2019-02-17T20:23:50.350Z,27.90
2019-02-17T20:26:29.697Z,27.80
2019-02-17T20:29:11.856Z,27.70
2019-02-17T20:31:52.195Z,27.70
2019-02-17T20:34:35.193Z,27.80
2019-02-17T20:37:15.587Z,27.90
2019-02-17T20:39:55.524Z,27.90
2019-02-17T20:42:35.303Z,27.80
2019-02-17T20:45:14.656Z,27.70
2019-02-17T20:47:54.732Z,27.70
2019-02-17T20:50:40.180Z,27.80
2019-02-17T20:53:19.773Z,27.80
2019-02-17T20:55:59.977Z,27.70
2019-02-17T20:58:39.618Z,27.70
2019-02-17T21:01:22.680Z,27.70
2019-02-17T21:04:02.993Z,27.80
2019-02-17T21:06:41.896Z,27.80
2019-02-17T21:09:21.882Z,27.80
2019-02-17T21:12:02.099Z,27.80
2019-02-17T21:14:41.958Z,27.70
2019-02-17T21:17:24.900Z,27.70
2019-02-17T21:20:04.273Z,27.70
2019-02-17T21:22:44.550Z,27.90
2019-02-17T21:25:24.573Z,27.70
2019-02-17T21:28:03.860Z,27.60
2019-02-17T21:30:43.127Z,27.60
2019-02-17T21:33:23.373Z,27.80
2019-02-17T21:36:03.007Z,27.90
2019-02-17T21:38:42.234Z,27.80
2019-02-17T21:41:24.110Z,27.70
2019-02-17T21:44:02.900Z,27.80
2019-02-17T21:46:44.829Z,27.90
2019-02-17T21:49:25.617Z,27.90
2019-02-17T21:52:24.571Z,27.70
2019-02-17T21:55:05.597Z,27.50
2019-02-17T21:57:45.686Z,27.80
2019-02-17T22:00:25.546Z,27.80
2019-02-17T22:03:06.025Z,27.80
2019-02-17T22:05:46.910Z,27.70
2019-02-17T22:08:26.856Z,27.80
2019-02-17T22:11:05.827Z,27.90
2019-02-17T22:13:45.584Z,27.90
2019-02-17T22:16:25.925Z,27.60
2019-02-17T22:19:06.208Z,27.60
2019-02-17T22:21:45.640Z,27.80
2019-02-17T22:24:24.736Z,28.00
2019-02-17T22:27:05.191Z,27.90
2019-02-17T22:29:47.528Z,27.70
2019-02-17T22:32:26.695Z,27.70
2019-02-17T22:35:08.853Z,27.80
2019-02-17T22:37:49.204Z,27.80
2019-02-17T22:40:29.261Z,27.60
2019-02-17T22:43:09.192Z,27.60
2019-02-17T22:45:48.766Z,27.80
2019-02-17T22:48:27.742Z,27.80
2019-02-17T22:51:08.232Z,27.70
2019-02-17T22:53:49.666Z,27.70
2019-02-17T22:56:29.144Z,27.70
2019-02-17T22:59:09.132Z,27.80
2019-02-17T23:01:51.428Z,27.90
2019-02-17T23:04:34.042Z,27.90
2019-02-17T23:07:14.381Z,27.70
2019-02-17T23:09:53.799Z,27.70
2019-02-17T23:12:35.956Z,27.80
2019-02-17T23:15:15.822Z,27.80
2019-02-17T23:17:54.867Z,27.90
2019-02-17T23:20:34.434Z,27.80
2019-02-17T23:23:16.434Z,27.70
2019-02-17T23:25:58.337Z,27.70
2019-02-17T23:28:38.274Z,27.80
2019-02-17T23:31:17.364Z,27.90
2019-02-17T23:33:57.960Z,27.90
2019-02-17T23:36:38.943Z,27.80
2019-02-17T23:39:19.653Z,27.80
2019-02-17T23:41:58.777Z,27.80
2019-02-17T23:44:39.019Z,27.90
2019-02-17T23:47:18.624Z,27.90
2019-02-17T23:49:58.931Z,27.70
2019-02-17T23:52:38.885Z,27.70
2019-02-17T23:55:18.926Z,27.70
2019-02-17T23:57:59.769Z,27.80
